sensor_id;sensor_type;location;lat;lon;timestamp;P1;durP1;ratioP1;P2;durP2;ratioP2
34234;SDS011;20500;49.856;20.290;2022-12-17T00:02:11;64.80;;;34.00;;
34234;SDS011;20500;49.856;20.290;2022-12-17T00:05:34;67.60;;;37.70;;
34234;SDS011;20500;49.856;20.290;2022-12-17T00:09:09;68.90;;;37.70;;
34234;SDS011;20500;49.856;20.290;2022-12-17T00:12:32;75.40;;;39.60;;
34234;SDS011;20500;49.856;20.290;2022-12-17T00:15:58;73.80;;;39.70;;
34234;SDS011;20500;49.856;20.290;2022-12-17T00:19:21;71.60;;;38.90;;
34234;SDS011;20500;49.856;20.290;2022-12-17T00:22:44;74.30;;;39.80;;
34234;SDS011;20500;49.856;20.290;2022-12-17T00:26:08;72.30;;;37.20;;
34234;SDS011;20500;49.856;20.290;2022-12-17T00:29:31;71.70;;;37.50;;
34234;SDS011;20500;49.856;20.290;2022-12-17T00:32:57;67.90;;;36.00;;
34234;SDS011;20500;49.856;20.290;2022-12-17T00:36:20;65.10;;;34.90;;
34234;SDS011;20500;49.856;20.290;2022-12-17T00:39:44;70.50;;;37.50;;
34234;SDS011;20500;49.856;20.290;2022-12-17T00:43:22;67.00;;;34.40;;
34234;SDS011;20500;49.856;20.290;2022-12-17T00:46:46;71.40;;;35.70;;
34234;SDS011;20500;49.856;20.290;2022-12-17T00:50:09;71.10;;;35.90;;
34234;SDS011;20500;49.856;20.290;2022-12-17T00:53:32;71.00;;;37.10;;
34234;SDS011;20500;49.856;20.290;2022-12-17T00:56:56;70.80;;;35.20;;
34234;SDS011;20500;49.856;20.290;2022-12-17T01:00:20;70.60;;;36.60;;
34234;SDS011;20500;49.856;20.290;2022-12-17T01:03:43;70.80;;;36.10;;
34234;SDS011;20500;49.856;20.290;2022-12-17T01:07:06;73.40;;;36.40;;
34234;SDS011;20500;49.856;20.290;2022-12-17T01:10:29;73.60;;;37.50;;
34234;SDS011;20500;49.856;20.290;2022-12-17T01:13:52;75.90;;;36.60;;
34234;SDS011;20500;49.856;20.290;2022-12-17T01:17:16;70.50;;;36.90;;
34234;SDS011;20500;49.856;20.290;2022-12-17T01:20:39;74.10;;;38.50;;
34234;SDS011;20500;49.856;20.290;2022-12-17T01:24:02;70.00;;;36.60;;
34234;SDS011;20500;49.856;20.290;2022-12-17T01:27:35;75.90;;;37.50;;
34234;SDS011;20500;49.856;20.290;2022-12-17T01:30:58;76.10;;;39.00;;
34234;SDS011;20500;49.856;20.290;2022-12-17T01:34:22;74.20;;;37.10;;
34234;SDS011;20500;49.856;20.290;2022-12-17T01:37:41;76.80;;;38.20;;
34234;SDS011;20500;49.856;20.290;2022-12-17T01:41:05;72.50;;;35.60;;
34234;SDS011;20500;49.856;20.290;2022-12-17T01:44:49;70.50;;;36.40;;
34234;SDS011;20500;49.856;20.290;2022-12-17T01:51:38;71.20;;;34.10;;
34234;SDS011;20500;49.856;20.290;2022-12-17T01:55:01;72.60;;;35.40;;
34234;SDS011;20500;49.856;20.290;2022-12-17T01:58:26;73.00;;;37.30;;
34234;SDS011;20500;49.856;20.290;2022-12-17T02:01:51;68.70;;;34.70;;
34234;SDS011;20500;49.856;20.290;2022-12-17T02:05:14;69.80;;;34.10;;
34234;SDS011;20500;49.856;20.290;2022-12-17T02:08:40;69.20;;;35.70;;
34234;SDS011;20500;49.856;20.290;2022-12-17T02:12:15;67.50;;;34.40;;
34234;SDS011;20500;49.856;20.290;2022-12-17T02:15:46;65.50;;;32.70;;
34234;SDS011;20500;49.856;20.290;2022-12-17T02:19:16;63.60;;;32.60;;
34234;SDS011;20500;49.856;20.290;2022-12-17T02:22:51;64.40;;;31.20;;
34234;SDS011;20500;49.856;20.290;2022-12-17T02:26:29;67.00;;;31.10;;
34234;SDS011;20500;49.856;20.290;2022-12-17T02:29:56;62.50;;;30.90;;
34234;SDS011;20500;49.856;20.290;2022-12-17T02:36:44;53.70;;;28.30;;
34234;SDS011;20500;49.856;20.290;2022-12-17T02:40:09;58.00;;;29.90;;
34234;SDS011;20500;49.856;20.290;2022-12-17T02:43:33;58.50;;;30.10;;
34234;SDS011;20500;49.856;20.290;2022-12-17T02:46:57;59.80;;;30.00;;
34234;SDS011;20500;49.856;20.290;2022-12-17T02:50:23;58.50;;;30.60;;
34234;SDS011;20500;49.856;20.290;2022-12-17T02:53:49;62.60;;;29.90;;
34234;SDS011;20500;49.856;20.290;2022-12-17T02:57:14;60.60;;;33.40;;
34234;SDS011;20500;49.856;20.290;2022-12-17T03:00:42;64.30;;;33.00;;
34234;SDS011;20500;49.856;20.290;2022-12-17T03:04:06;61.40;;;31.70;;
34234;SDS011;20500;49.856;20.290;2022-12-17T03:07:29;63.00;;;32.90;;
34234;SDS011;20500;49.856;20.290;2022-12-17T03:10:52;63.50;;;32.40;;
34234;SDS011;20500;49.856;20.290;2022-12-17T03:14:27;65.70;;;33.80;;
34234;SDS011;20500;49.856;20.290;2022-12-17T03:17:50;67.20;;;34.80;;
34234;SDS011;20500;49.856;20.290;2022-12-17T03:21:14;64.70;;;33.10;;
34234;SDS011;20500;49.856;20.290;2022-12-17T03:24:37;64.40;;;33.40;;
34234;SDS011;20500;49.856;20.290;2022-12-17T03:28:03;63.50;;;32.40;;
34234;SDS011;20500;49.856;20.290;2022-12-17T03:31:27;60.20;;;31.50;;
34234;SDS011;20500;49.856;20.290;2022-12-17T03:34:51;59.90;;;32.20;;
34234;SDS011;20500;49.856;20.290;2022-12-17T03:38:14;64.40;;;35.00;;
34234;SDS011;20500;49.856;20.290;2022-12-17T03:41:37;59.50;;;33.00;;
34234;SDS011;20500;49.856;20.290;2022-12-17T03:45:01;57.20;;;30.10;;
34234;SDS011;20500;49.856;20.290;2022-12-17T03:48:24;56.70;;;30.80;;
34234;SDS011;20500;49.856;20.290;2022-12-17T03:51:47;56.90;;;30.20;;
34234;SDS011;20500;49.856;20.290;2022-12-17T03:55:11;56.90;;;30.10;;
34234;SDS011;20500;49.856;20.290;2022-12-17T03:58:34;57.60;;;31.60;;
34234;SDS011;20500;49.856;20.290;2022-12-17T04:01:58;48.70;;;28.00;;
34234;SDS011;20500;49.856;20.290;2022-12-17T04:05:22;54.70;;;28.50;;
34234;SDS011;20500;49.856;20.290;2022-12-17T04:08:46;53.30;;;27.70;;
34234;SDS011;20500;49.856;20.290;2022-12-17T04:12:09;51.40;;;28.40;;
34234;SDS011;20500;49.856;20.290;2022-12-17T04:15:32;53.30;;;29.70;;
34234;SDS011;20500;49.856;20.290;2022-12-17T04:18:56;50.60;;;28.50;;
34234;SDS011;20500;49.856;20.290;2022-12-17T04:22:19;51.80;;;27.50;;
34234;SDS011;20500;49.856;20.290;2022-12-17T04:25:50;48.70;;;25.80;;
34234;SDS011;20500;49.856;20.290;2022-12-17T04:29:13;55.80;;;28.10;;
34234;SDS011;20500;49.856;20.290;2022-12-17T04:32:36;48.90;;;27.30;;
34234;SDS011;20500;49.856;20.290;2022-12-17T04:35:59;49.80;;;26.60;;
34234;SDS011;20500;49.856;20.290;2022-12-17T04:39:22;50.70;;;28.10;;
34234;SDS011;20500;49.856;20.290;2022-12-17T04:42:46;55.20;;;27.80;;
34234;SDS011;20500;49.856;20.290;2022-12-17T04:46:09;52.40;;;28.10;;
34234;SDS011;20500;49.856;20.290;2022-12-17T04:49:32;53.60;;;28.70;;
34234;SDS011;20500;49.856;20.290;2022-12-17T04:52:59;49.30;;;26.80;;
34234;SDS011;20500;49.856;20.290;2022-12-17T04:56:23;47.20;;;26.60;;
34234;SDS011;20500;49.856;20.290;2022-12-17T04:59:47;49.70;;;25.90;;
34234;SDS011;20500;49.856;20.290;2022-12-17T05:03:11;84.20;;;46.10;;
34234;SDS011;20500;49.856;20.290;2022-12-17T05:06:37;58.60;;;33.50;;
34234;SDS011;20500;49.856;20.290;2022-12-17T05:10:00;57.10;;;29.60;;
34234;SDS011;20500;49.856;20.290;2022-12-17T05:13:28;55.90;;;31.70;;
34234;SDS011;20500;49.856;20.290;2022-12-17T05:16:52;57.70;;;30.90;;
34234;SDS011;20500;49.856;20.290;2022-12-17T05:20:15;54.00;;;29.30;;
34234;SDS011;20500;49.856;20.290;2022-12-17T05:23:38;46.30;;;25.80;;
34234;SDS011;20500;49.856;20.290;2022-12-17T05:26:58;44.30;;;24.40;;
34234;SDS011;20500;49.856;20.290;2022-12-17T05:30:21;48.20;;;27.20;;
34234;SDS011;20500;49.856;20.290;2022-12-17T05:33:44;46.10;;;25.30;;
34234;SDS011;20500;49.856;20.290;2022-12-17T05:37:08;47.00;;;25.90;;
34234;SDS011;20500;49.856;20.290;2022-12-17T05:40:31;49.00;;;25.30;;
34234;SDS011;20500;49.856;20.290;2022-12-17T05:43:55;47.80;;;25.50;;
34234;SDS011;20500;49.856;20.290;2022-12-17T05:47:18;50.00;;;26.90;;
34234;SDS011;20500;49.856;20.290;2022-12-17T05:50:42;45.50;;;26.90;;
34234;SDS011;20500;49.856;20.290;2022-12-17T05:54:09;45.90;;;25.50;;
34234;SDS011;20500;49.856;20.290;2022-12-17T05:57:32;47.00;;;27.50;;
34234;SDS011;20500;49.856;20.290;2022-12-17T06:00:59;45.30;;;25.10;;
34234;SDS011;20500;49.856;20.290;2022-12-17T06:04:23;47.30;;;25.90;;
34234;SDS011;20500;49.856;20.290;2022-12-17T06:07:46;47.10;;;25.70;;
34234;SDS011;20500;49.856;20.290;2022-12-17T06:11:10;44.60;;;25.70;;
34234;SDS011;20500;49.856;20.290;2022-12-17T06:14:33;42.40;;;24.00;;
34234;SDS011;20500;49.856;20.290;2022-12-17T06:17:57;44.00;;;23.60;;
34234;SDS011;20500;49.856;20.290;2022-12-17T06:21:21;43.00;;;24.70;;
34234;SDS011;20500;49.856;20.290;2022-12-17T06:24:44;43.60;;;25.20;;
34234;SDS011;20500;49.856;20.290;2022-12-17T06:28:08;45.20;;;26.40;;
34234;SDS011;20500;49.856;20.290;2022-12-17T06:31:46;46.00;;;26.30;;
34234;SDS011;20500;49.856;20.290;2022-12-17T06:35:09;47.60;;;26.70;;
34234;SDS011;20500;49.856;20.290;2022-12-17T06:38:33;51.60;;;27.30;;
34234;SDS011;20500;49.856;20.290;2022-12-17T06:41:56;51.90;;;28.70;;
34234;SDS011;20500;49.856;20.290;2022-12-17T06:45:19;51.20;;;27.50;;
34234;SDS011;20500;49.856;20.290;2022-12-17T06:48:44;47.50;;;26.30;;
34234;SDS011;20500;49.856;20.290;2022-12-17T06:52:07;49.20;;;27.30;;
34234;SDS011;20500;49.856;20.290;2022-12-17T06:55:30;51.30;;;27.70;;
34234;SDS011;20500;49.856;20.290;2022-12-17T06:58:53;54.10;;;29.10;;
34234;SDS011;20500;49.856;20.290;2022-12-17T07:02:16;54.30;;;29.60;;
34234;SDS011;20500;49.856;20.290;2022-12-17T07:05:40;55.60;;;29.70;;
34234;SDS011;20500;49.856;20.290;2022-12-17T07:09:04;54.80;;;30.00;;
34234;SDS011;20500;49.856;20.290;2022-12-17T07:12:27;52.10;;;28.80;;
34234;SDS011;20500;49.856;20.290;2022-12-17T07:15:51;56.50;;;30.50;;
34234;SDS011;20500;49.856;20.290;2022-12-17T07:19:15;52.40;;;30.10;;
34234;SDS011;20500;49.856;20.290;2022-12-17T07:22:38;60.50;;;32.20;;
34234;SDS011;20500;49.856;20.290;2022-12-17T07:26:02;58.70;;;32.30;;
34234;SDS011;20500;49.856;20.290;2022-12-17T07:29:25;67.30;;;36.10;;
34234;SDS011;20500;49.856;20.290;2022-12-17T07:32:56;62.30;;;36.00;;
34234;SDS011;20500;49.856;20.290;2022-12-17T07:36:19;73.20;;;38.80;;
34234;SDS011;20500;49.856;20.290;2022-12-17T07:39:42;69.20;;;38.90;;
34234;SDS011;20500;49.856;20.290;2022-12-17T07:43:09;69.30;;;37.60;;
34234;SDS011;20500;49.856;20.290;2022-12-17T07:46:33;70.50;;;38.80;;
34234;SDS011;20500;49.856;20.290;2022-12-17T07:49:56;67.40;;;36.10;;
34234;SDS011;20500;49.856;20.290;2022-12-17T07:53:20;69.80;;;37.50;;
34234;SDS011;20500;49.856;20.290;2022-12-17T07:56:43;71.20;;;37.10;;
34234;SDS011;20500;49.856;20.290;2022-12-17T08:00:08;66.70;;;35.90;;
34234;SDS011;20500;49.856;20.290;2022-12-17T08:06:54;67.20;;;35.00;;
34234;SDS011;20500;49.856;20.290;2022-12-17T08:10:17;59.10;;;33.30;;
34234;SDS011;20500;49.856;20.290;2022-12-17T08:13:43;61.80;;;33.70;;
34234;SDS011;20500;49.856;20.290;2022-12-17T08:17:07;57.10;;;32.40;;
34234;SDS011;20500;49.856;20.290;2022-12-17T08:20:30;60.90;;;33.20;;
34234;SDS011;20500;49.856;20.290;2022-12-17T08:23:53;62.10;;;34.00;;
34234;SDS011;20500;49.856;20.290;2022-12-17T08:27:17;58.80;;;33.80;;
34234;SDS011;20500;49.856;20.290;2022-12-17T08:30:40;57.50;;;34.10;;
34234;SDS011;20500;49.856;20.290;2022-12-17T08:34:07;61.00;;;35.00;;
34234;SDS011;20500;49.856;20.290;2022-12-17T08:37:31;67.30;;;35.60;;
34234;SDS011;20500;49.856;20.290;2022-12-17T08:40:54;63.90;;;37.20;;
34234;SDS011;20500;49.856;20.290;2022-12-17T08:44:19;67.10;;;38.50;;
34234;SDS011;20500;49.856;20.290;2022-12-17T08:47:43;61.70;;;35.90;;
34234;SDS011;20500;49.856;20.290;2022-12-17T08:51:06;64.40;;;35.50;;
34234;SDS011;20500;49.856;20.290;2022-12-17T08:54:29;63.90;;;35.50;;
34234;SDS011;20500;49.856;20.290;2022-12-17T08:57:53;62.50;;;35.40;;
34234;SDS011;20500;49.856;20.290;2022-12-17T09:01:17;63.50;;;34.60;;
34234;SDS011;20500;49.856;20.290;2022-12-17T09:04:55;62.40;;;34.80;;
34234;SDS011;20500;49.856;20.290;2022-12-17T09:08:18;61.90;;;33.70;;
34234;SDS011;20500;49.856;20.290;2022-12-17T09:11:42;58.30;;;33.80;;
34234;SDS011;20500;49.856;20.290;2022-12-17T09:15:06;60.90;;;34.10;;
34234;SDS011;20500;49.856;20.290;2022-12-17T09:18:30;62.30;;;35.50;;
34234;SDS011;20500;49.856;20.290;2022-12-17T09:21:53;61.50;;;35.00;;
34234;SDS011;20500;49.856;20.290;2022-12-17T09:25:16;63.90;;;36.30;;
34234;SDS011;20500;49.856;20.290;2022-12-17T09:28:40;62.60;;;37.50;;
34234;SDS011;20500;49.856;20.290;2022-12-17T09:32:03;66.50;;;37.10;;
34234;SDS011;20500;49.856;20.290;2022-12-17T09:35:26;69.80;;;40.20;;
34234;SDS011;20500;49.856;20.290;2022-12-17T09:38:49;66.10;;;38.20;;
34234;SDS011;20500;49.856;20.290;2022-12-17T09:42:13;61.50;;;36.20;;
34234;SDS011;20500;49.856;20.290;2022-12-17T09:45:52;66.40;;;38.60;;
34234;SDS011;20500;49.856;20.290;2022-12-17T09:49:25;63.30;;;36.60;;
34234;SDS011;20500;49.856;20.290;2022-12-17T09:52:49;66.80;;;38.80;;
34234;SDS011;20500;49.856;20.290;2022-12-17T09:56:12;66.70;;;38.60;;
34234;SDS011;20500;49.856;20.290;2022-12-17T09:59:38;68.20;;;38.30;;
34234;SDS011;20500;49.856;20.290;2022-12-17T10:03:02;65.30;;;37.60;;
34234;SDS011;20500;49.856;20.290;2022-12-17T10:06:30;64.10;;;37.90;;
34234;SDS011;20500;49.856;20.290;2022-12-17T10:09:55;67.40;;;37.60;;
34234;SDS011;20500;49.856;20.290;2022-12-17T10:13:24;69.50;;;37.90;;
34234;SDS011;20500;49.856;20.290;2022-12-17T10:16:47;62.90;;;37.30;;
34234;SDS011;20500;49.856;20.290;2022-12-17T10:20:16;67.20;;;37.90;;
34234;SDS011;20500;49.856;20.290;2022-12-17T10:23:42;61.60;;;38.10;;
34234;SDS011;20500;49.856;20.290;2022-12-17T10:27:08;71.20;;;39.70;;
34234;SDS011;20500;49.856;20.290;2022-12-17T10:30:32;68.00;;;39.40;;
34234;SDS011;20500;49.856;20.290;2022-12-17T10:33:54;63.40;;;39.40;;
34234;SDS011;20500;49.856;20.290;2022-12-17T10:37:18;67.40;;;38.20;;
34234;SDS011;20500;49.856;20.290;2022-12-17T10:40:42;66.20;;;39.20;;
34234;SDS011;20500;49.856;20.290;2022-12-17T10:44:19;69.60;;;39.60;;
34234;SDS011;20500;49.856;20.290;2022-12-17T10:47:45;66.30;;;39.90;;
34234;SDS011;20500;49.856;20.290;2022-12-17T10:51:26;70.70;;;40.70;;
34234;SDS011;20500;49.856;20.290;2022-12-17T10:54:56;70.00;;;40.60;;
34234;SDS011;20500;49.856;20.290;2022-12-17T10:58:22;69.70;;;40.50;;
34234;SDS011;20500;49.856;20.290;2022-12-17T11:01:52;69.10;;;40.00;;
34234;SDS011;20500;49.856;20.290;2022-12-17T11:05:21;66.70;;;39.40;;
34234;SDS011;20500;49.856;20.290;2022-12-17T11:08:47;69.10;;;40.90;;
34234;SDS011;20500;49.856;20.290;2022-12-17T11:12:11;73.70;;;42.20;;
34234;SDS011;20500;49.856;20.290;2022-12-17T11:15:38;72.00;;;40.50;;
34234;SDS011;20500;49.856;20.290;2022-12-17T11:19:20;75.50;;;42.60;;
34234;SDS011;20500;49.856;20.290;2022-12-17T11:22:52;71.40;;;40.20;;
34234;SDS011;20500;49.856;20.290;2022-12-17T11:26:18;68.60;;;41.30;;
34234;SDS011;20500;49.856;20.290;2022-12-17T11:29:54;70.00;;;40.90;;
34234;SDS011;20500;49.856;20.290;2022-12-17T11:33:18;72.30;;;42.70;;
34234;SDS011;20500;49.856;20.290;2022-12-17T11:37:01;78.70;;;42.80;;
34234;SDS011;20500;49.856;20.290;2022-12-17T11:40:35;72.90;;;42.90;;
34234;SDS011;20500;49.856;20.290;2022-12-17T11:44:03;74.90;;;43.70;;
34234;SDS011;20500;49.856;20.290;2022-12-17T11:47:35;73.40;;;42.30;;
34234;SDS011;20500;49.856;20.290;2022-12-17T11:51:08;72.20;;;42.00;;
34234;SDS011;20500;49.856;20.290;2022-12-17T11:54:39;67.60;;;40.30;;
34234;SDS011;20500;49.856;20.290;2022-12-17T11:58:24;72.10;;;40.80;;
34234;SDS011;20500;49.856;20.290;2022-12-17T12:01:57;71.70;;;41.50;;
34234;SDS011;20500;49.856;20.290;2022-12-17T12:05:29;75.60;;;41.50;;
34234;SDS011;20500;49.856;20.290;2022-12-17T12:09:18;72.90;;;41.70;;
34234;SDS011;20500;49.856;20.290;2022-12-17T12:12:52;71.70;;;41.10;;
34234;SDS011;20500;49.856;20.290;2022-12-17T12:16:26;71.80;;;41.00;;
34234;SDS011;20500;49.856;20.290;2022-12-17T12:19:54;65.70;;;38.30;;
34234;SDS011;20500;49.856;20.290;2022-12-17T12:23:27;71.20;;;39.80;;
34234;SDS011;20500;49.856;20.290;2022-12-17T12:27:00;71.90;;;40.30;;
34234;SDS011;20500;49.856;20.290;2022-12-17T12:30:43;76.70;;;42.30;;
34234;SDS011;20500;49.856;20.290;2022-12-17T12:34:16;72.80;;;41.40;;
34234;SDS011;20500;49.856;20.290;2022-12-17T12:37:44;85.80;;;49.00;;
34234;SDS011;20500;49.856;20.290;2022-12-17T12:41:10;146.70;;;85.70;;
34234;SDS011;20500;49.856;20.290;2022-12-17T12:44:43;105.40;;;60.20;;
34234;SDS011;20500;49.856;20.290;2022-12-17T12:48:13;107.50;;;60.70;;
34234;SDS011;20500;49.856;20.290;2022-12-17T12:51:46;115.90;;;77.80;;
34234;SDS011;20500;49.856;20.290;2022-12-17T12:55:13;91.10;;;55.30;;
34234;SDS011;20500;49.856;20.290;2022-12-17T12:58:35;102.10;;;64.80;;
34234;SDS011;20500;49.856;20.290;2022-12-17T13:01:57;86.50;;;49.10;;
34234;SDS011;20500;49.856;20.290;2022-12-17T13:55:24;115.00;;;63.60;;
34234;SDS011;20500;49.856;20.290;2022-12-17T13:58:29;100.90;;;58.80;;
34234;SDS011;20500;49.856;20.290;2022-12-17T14:01:42;104.40;;;57.00;;
34234;SDS011;20500;49.856;20.290;2022-12-17T14:04:50;96.00;;;53.30;;
34234;SDS011;20500;49.856;20.290;2022-12-17T14:07:53;128.50;;;71.30;;
34234;SDS011;20500;49.856;20.290;2022-12-17T14:10:59;127.30;;;66.90;;
34234;SDS011;20500;49.856;20.290;2022-12-17T14:14:25;145.50;;;76.20;;
34234;SDS011;20500;49.856;20.290;2022-12-17T14:17:35;238.80;;;128.70;;
34234;SDS011;20500;49.856;20.290;2022-12-17T14:20:41;102.80;;;57.40;;
34234;SDS011;20500;49.856;20.290;2022-12-17T14:23:44;140.60;;;84.00;;
34234;SDS011;20500;49.856;20.290;2022-12-17T14:29:53;126.60;;;71.90;;
34234;SDS011;20500;49.856;20.290;2022-12-17T14:32:58;123.90;;;70.10;;
34234;SDS011;20500;49.856;20.290;2022-12-17T14:36:01;109.30;;;57.50;;
34234;SDS011;20500;49.856;20.290;2022-12-17T14:42:19;124.30;;;70.40;;
34234;SDS011;20500;49.856;20.290;2022-12-17T14:45:26;108.20;;;57.10;;
34234;SDS011;20500;49.856;20.290;2022-12-17T14:48:30;112.90;;;65.10;;
34234;SDS011;20500;49.856;20.290;2022-12-17T14:51:48;106.80;;;56.90;;
34234;SDS011;20500;49.856;20.290;2022-12-17T14:54:51;112.10;;;60.30;;
34234;SDS011;20500;49.856;20.290;2022-12-17T14:58:06;108.50;;;59.10;;
34234;SDS011;20500;49.856;20.290;2022-12-17T15:01:15;105.50;;;58.70;;
34234;SDS011;20500;49.856;20.290;2022-12-17T15:04:19;119.70;;;67.20;;
34234;SDS011;20500;49.856;20.290;2022-12-17T15:07:24;110.10;;;58.30;;
34234;SDS011;20500;49.856;20.290;2022-12-17T15:10:28;110.40;;;58.70;;
34234;SDS011;20500;49.856;20.290;2022-12-17T15:13:30;112.10;;;59.80;;
34234;SDS011;20500;49.856;20.290;2022-12-17T15:16:34;104.90;;;54.40;;
34234;SDS011;20500;49.856;20.290;2022-12-17T15:19:36;150.80;;;84.10;;
34234;SDS011;20500;49.856;20.290;2022-12-17T15:22:39;114.80;;;65.40;;
34234;SDS011;20500;49.856;20.290;2022-12-17T15:25:42;110.90;;;60.60;;
34234;SDS011;20500;49.856;20.290;2022-12-17T15:28:48;101.20;;;52.10;;
34234;SDS011;20500;49.856;20.290;2022-12-17T15:31:51;103.30;;;54.50;;
34234;SDS011;20500;49.856;20.290;2022-12-17T15:34:54;100.40;;;53.30;;
34234;SDS011;20500;49.856;20.290;2022-12-17T15:37:57;102.00;;;53.40;;
34234;SDS011;20500;49.856;20.290;2022-12-17T15:41:00;107.70;;;55.80;;
34234;SDS011;20500;49.856;20.290;2022-12-17T15:44:23;140.40;;;72.70;;
34234;SDS011;20500;49.856;20.290;2022-12-17T15:47:27;103.40;;;53.20;;
34234;SDS011;20500;49.856;20.290;2022-12-17T15:50:30;141.00;;;81.70;;
34234;SDS011;20500;49.856;20.290;2022-12-17T15:53:33;106.00;;;57.10;;
34234;SDS011;20500;49.856;20.290;2022-12-17T15:56:36;108.80;;;54.30;;
34234;SDS011;20500;49.856;20.290;2022-12-17T15:59:39;110.30;;;56.60;;
34234;SDS011;20500;49.856;20.290;2022-12-17T16:02:42;109.50;;;55.30;;
34234;SDS011;20500;49.856;20.290;2022-12-17T16:05:45;108.10;;;56.30;;
34234;SDS011;20500;49.856;20.290;2022-12-17T16:08:48;109.80;;;55.40;;
34234;SDS011;20500;49.856;20.290;2022-12-17T16:11:52;112.70;;;54.90;;
34234;SDS011;20500;49.856;20.290;2022-12-17T16:14:55;112.60;;;58.30;;
34234;SDS011;20500;49.856;20.290;2022-12-17T16:17:58;109.50;;;55.50;;
34234;SDS011;20500;49.856;20.290;2022-12-17T16:21:01;114.80;;;57.20;;
34234;SDS011;20500;49.856;20.290;2022-12-17T16:24:05;107.40;;;53.40;;
34234;SDS011;20500;49.856;20.290;2022-12-17T16:27:08;102.70;;;51.60;;
34234;SDS011;20500;49.856;20.290;2022-12-17T16:30:12;108.80;;;54.70;;
34234;SDS011;20500;49.856;20.290;2022-12-17T16:33:15;102.50;;;52.40;;
34234;SDS011;20500;49.856;20.290;2022-12-17T16:36:19;109.00;;;54.50;;
34234;SDS011;20500;49.856;20.290;2022-12-17T16:39:22;105.70;;;53.60;;
34234;SDS011;20500;49.856;20.290;2022-12-17T16:42:25;103.90;;;53.00;;
34234;SDS011;20500;49.856;20.290;2022-12-17T16:45:28;106.00;;;54.70;;
34234;SDS011;20500;49.856;20.290;2022-12-17T16:48:35;136.10;;;71.60;;
34234;SDS011;20500;49.856;20.290;2022-12-17T16:51:39;145.60;;;80.50;;
34234;SDS011;20500;49.856;20.290;2022-12-17T16:54:42;126.90;;;66.70;;
34234;SDS011;20500;49.856;20.290;2022-12-17T16:57:45;152.40;;;82.30;;
34234;SDS011;20500;49.856;20.290;2022-12-17T17:00:53;166.10;;;94.00;;
34234;SDS011;20500;49.856;20.290;2022-12-17T17:03:56;123.30;;;68.80;;
34234;SDS011;20500;49.856;20.290;2022-12-17T17:06:59;129.20;;;68.20;;
34234;SDS011;20500;49.856;20.290;2022-12-17T17:10:02;117.10;;;61.10;;
34234;SDS011;20500;49.856;20.290;2022-12-17T17:13:05;140.70;;;77.00;;
34234;SDS011;20500;49.856;20.290;2022-12-17T17:16:08;136.00;;;72.60;;
34234;SDS011;20500;49.856;20.290;2022-12-17T17:19:12;127.30;;;66.00;;
34234;SDS011;20500;49.856;20.290;2022-12-17T17:22:15;124.70;;;64.30;;
34234;SDS011;20500;49.856;20.290;2022-12-17T17:25:18;164.30;;;98.80;;
34234;SDS011;20500;49.856;20.290;2022-12-17T17:28:20;128.60;;;66.00;;
34234;SDS011;20500;49.856;20.290;2022-12-17T17:31:23;129.90;;;65.60;;
34234;SDS011;20500;49.856;20.290;2022-12-17T17:34:46;153.00;;;79.90;;
34234;SDS011;20500;49.856;20.290;2022-12-17T17:37:49;124.80;;;63.40;;
34234;SDS011;20500;49.856;20.290;2022-12-17T17:40:55;132.80;;;67.50;;
34234;SDS011;20500;49.856;20.290;2022-12-17T17:47:01;127.70;;;61.30;;
34234;SDS011;20500;49.856;20.290;2022-12-17T17:50:05;139.10;;;73.70;;
34234;SDS011;20500;49.856;20.290;2022-12-17T17:53:09;126.00;;;65.70;;
34234;SDS011;20500;49.856;20.290;2022-12-17T17:56:13;138.50;;;71.60;;
34234;SDS011;20500;49.856;20.290;2022-12-17T17:59:18;118.20;;;60.50;;
34234;SDS011;20500;49.856;20.290;2022-12-17T18:02:21;123.50;;;60.70;;
34234;SDS011;20500;49.856;20.290;2022-12-17T18:05:24;121.30;;;61.50;;
34234;SDS011;20500;49.856;20.290;2022-12-17T18:08:28;124.40;;;65.60;;
34234;SDS011;20500;49.856;20.290;2022-12-17T18:11:31;134.60;;;68.20;;
34234;SDS011;20500;49.856;20.290;2022-12-17T18:14:34;125.40;;;61.30;;
34234;SDS011;20500;49.856;20.290;2022-12-17T18:17:43;121.80;;;60.60;;
34234;SDS011;20500;49.856;20.290;2022-12-17T18:20:47;113.70;;;59.10;;
34234;SDS011;20500;49.856;20.290;2022-12-17T18:23:53;129.60;;;62.90;;
34234;SDS011;20500;49.856;20.290;2022-12-17T18:26:57;126.80;;;63.90;;
34234;SDS011;20500;49.856;20.290;2022-12-17T18:29:59;132.00;;;65.50;;
34234;SDS011;20500;49.856;20.290;2022-12-17T18:33:03;139.90;;;69.30;;
34234;SDS011;20500;49.856;20.290;2022-12-17T18:36:12;154.30;;;81.70;;
34234;SDS011;20500;49.856;20.290;2022-12-17T18:39:18;151.10;;;80.00;;
34234;SDS011;20500;49.856;20.290;2022-12-17T18:42:22;115.70;;;59.20;;
34234;SDS011;20500;49.856;20.290;2022-12-17T18:45:43;112.90;;;57.70;;
34234;SDS011;20500;49.856;20.290;2022-12-17T18:48:46;111.40;;;56.80;;
34234;SDS011;20500;49.856;20.290;2022-12-17T18:51:52;108.30;;;54.50;;
34234;SDS011;20500;49.856;20.290;2022-12-17T18:54:56;110.70;;;55.00;;
34234;SDS011;20500;49.856;20.290;2022-12-17T18:57:59;137.60;;;73.50;;
34234;SDS011;20500;49.856;20.290;2022-12-17T19:01:03;112.80;;;54.70;;
34234;SDS011;20500;49.856;20.290;2022-12-17T19:04:07;117.90;;;57.00;;
34234;SDS011;20500;49.856;20.290;2022-12-17T19:07:12;109.20;;;55.30;;
34234;SDS011;20500;49.856;20.290;2022-12-17T19:10:16;103.60;;;51.50;;
34234;SDS011;20500;49.856;20.290;2022-12-17T19:13:20;103.50;;;52.60;;
34234;SDS011;20500;49.856;20.290;2022-12-17T19:16:23;129.50;;;71.20;;
34234;SDS011;20500;49.856;20.290;2022-12-17T19:19:28;122.50;;;68.80;;
34234;SDS011;20500;49.856;20.290;2022-12-17T19:22:31;110.50;;;55.40;;
34234;SDS011;20500;49.856;20.290;2022-12-17T19:25:34;103.30;;;53.20;;
34234;SDS011;20500;49.856;20.290;2022-12-17T19:28:37;96.00;;;51.10;;
34234;SDS011;20500;49.856;20.290;2022-12-17T19:31:44;104.30;;;54.00;;
34234;SDS011;20500;49.856;20.290;2022-12-17T19:34:47;97.10;;;50.60;;
34234;SDS011;20500;49.856;20.290;2022-12-17T19:37:50;103.60;;;53.30;;
34234;SDS011;20500;49.856;20.290;2022-12-17T19:40:54;112.20;;;61.30;;
34234;SDS011;20500;49.856;20.290;2022-12-17T19:44:00;103.90;;;52.40;;
34234;SDS011;20500;49.856;20.290;2022-12-17T19:47:05;105.50;;;55.10;;
34234;SDS011;20500;49.856;20.290;2022-12-17T19:50:09;105.70;;;54.40;;
34234;SDS011;20500;49.856;20.290;2022-12-17T19:53:12;98.70;;;49.80;;
34234;SDS011;20500;49.856;20.290;2022-12-17T19:56:16;100.60;;;54.20;;
34234;SDS011;20500;49.856;20.290;2022-12-17T19:59:21;91.40;;;47.80;;
34234;SDS011;20500;49.856;20.290;2022-12-17T20:02:24;100.70;;;50.40;;
34234;SDS011;20500;49.856;20.290;2022-12-17T20:05:33;98.80;;;50.80;;
34234;SDS011;20500;49.856;20.290;2022-12-17T20:08:37;102.60;;;51.20;;